Time;durP1;ratioP1;P1;durP2;ratioP2;P2;SDS_P1;SDS_P2;PMS_P1;PMS_P2;Temp;Humidity;BMP_temperature;BMP_pressure;BME280_temperature;BME280_humidity;BME280_pressure;Samples;Min_cycle;Max_cycle;Signal;HPM_P1;HPM_P2
2023/12/11 00:01:04;;;;;;;8.45;3.50;;;9.00;99.90;;;;;;6301875;22;20038;-71
2023/12/11 00:03:50;;;;;;;10.18;3.42;;;9.00;99.90;;;;;;6302314;22;20110;-70
2023/12/11 00:06:36;;;;;;;8.05;2.80;;;9.00;99.90;;;;;;6281852;22;20090;-72
2023/12/11 00:09:22;;;;;;;7.10;2.67;;;9.00;99.90;;;;;;6301542;22;20311;-71
2023/12/11 00:12:08;;;;;;;15.10;4.05;;;9.00;99.90;;;;;;6302317;22;20011;-71
2023/12/11 00:14:54;;;;;;;6.78;3.47;;;9.00;99.90;;;;;;6302096;22;20019;-72
2023/12/11 00:17:40;;;;;;;10.68;2.83;;;9.00;99.90;;;;;;6281956;22;20022;-72
2023/12/11 00:20:26;;;;;;;11.55;3.38;;;9.00;99.90;;;;;;6299905;22;20090;-72
2023/12/11 00:23:12;;;;;;;12.50;3.60;;;8.90;99.90;;;;;;6302107;22;20023;-72
2023/12/11 00:25:58;;;;;;;9.68;3.00;;;8.90;99.90;;;;;;6301521;22;20341;-73
2023/12/11 00:28:47;;;;;;;10.13;2.95;;;8.90;99.90;;;;;;6301049;22;20012;-72
2023/12/11 00:31:33;;;;;;;10.55;3.13;;;8.90;99.90;;;;;;6301127;22;20326;-72
2023/12/11 00:34:19;;;;;;;7.53;3.38;;;8.90;99.90;;;;;;6300732;22;20007;-73
2023/12/11 00:37:05;;;;;;;6.88;3.08;;;8.90;99.90;;;;;;6302901;22;20046;-73
2023/12/11 00:39:51;;;;;;;11.50;3.65;;;8.90;99.90;;;;;;6303016;22;20007;-74
2023/12/11 00:42:37;;;;;;;10.50;3.38;;;8.80;99.90;;;;;;6303009;22;20459;-74
2023/12/11 00:45:23;;;;;;;8.55;3.35;;;8.80;99.90;;;;;;6301711;22;20007;-73
2023/12/11 00:48:09;;;;;;;11.00;3.20;;;8.90;99.90;;;;;;6301552;22;20456;-73
2023/12/11 00:50:55;;;;;;;11.73;3.63;;;8.80;99.90;;;;;;6302882;22;20074;-73
2023/12/11 00:53:41;;;;;;;9.23;3.35;;;8.90;99.90;;;;;;6301361;22;20165;-74
2023/12/11 00:56:27;;;;;;;6.68;2.80;;;8.80;99.90;;;;;;6301788;22;20405;-71
2023/12/11 00:59:13;;;;;;;5.88;2.60;;;8.80;99.90;;;;;;6302570;22;20064;-71
2023/12/11 01:01:59;;;;;;;9.90;2.83;;;8.80;99.90;;;;;;6301691;22;20057;-71
2023/12/11 01:04:45;;;;;;;11.40;3.53;;;8.80;99.90;;;;;;6300373;22;20007;-71
2023/12/11 01:07:31;;;;;;;10.05;3.00;;;8.80;99.90;;;;;;6302497;22;20005;-71
2023/12/11 01:10:17;;;;;;;9.43;2.85;;;8.80;99.90;;;;;;6301945;22;20007;-71
2023/12/11 01:13:03;;;;;;;9.95;3.85;;;8.80;99.90;;;;;;6303302;22;20010;-73
2023/12/11 01:15:49;;;;;;;8.25;3.88;;;8.70;99.90;;;;;;6300873;22;20015;-72
2023/12/11 01:18:35;;;;;;;7.20;2.97;;;8.70;99.90;;;;;;6301528;22;20003;-72
2023/12/11 01:21:21;;;;;;;8.93;3.30;;;8.70;99.90;;;;;;6301443;22;20015;-71
2023/12/11 01:24:07;;;;;;;6.85;3.15;;;8.70;99.90;;;;;;6301738;22;20448;-71
2023/12/11 01:26:53;;;;;;;10.48;3.15;;;8.70;99.90;;;;;;6280788;22;20199;-71
2023/12/11 01:29:39;;;;;;;5.28;2.55;;;8.70;99.90;;;;;;6301273;22;20202;-71
2023/12/11 01:32:25;;;;;;;9.32;2.92;;;8.70;99.90;;;;;;6300890;22;20015;-71
2023/12/11 01:35:11;;;;;;;5.38;2.58;;;8.70;99.90;;;;;;6281134;22;20011;-71
2023/12/11 01:37:57;;;;;;;7.97;2.90;;;8.70;99.90;;;;;;6299880;22;20023;-71
2023/12/11 01:40:43;;;;;;;4.70;2.35;;;8.70;99.90;;;;;;6301178;22;20015;-71
2023/12/11 01:43:29;;;;;;;6.47;2.35;;;8.70;99.90;;;;;;6299855;22;20021;-72
2023/12/11 01:46:18;;;;;;;6.68;2.83;;;8.70;99.90;;;;;;6302176;22;20011;-72
2023/12/11 01:49:04;;;;;;;10.25;2.90;;;8.70;99.90;;;;;;6302536;22;20090;-74
2023/12/11 01:51:50;;;;;;;8.38;3.25;;;8.70;99.90;;;;;;6301297;22;20007;-67
2023/12/11 01:54:37;;;;;;;6.07;1.88;;;8.70;99.90;;;;;;6302467;22;20008;-68
2023/12/11 01:57:23;;;;;;;5.55;2.10;;;8.70;99.90;;;;;;6301402;22;20098;-68
2023/12/11 02:00:10;;;;;;;5.95;2.40;;;8.70;99.90;;;;;;6298537;22;20014;-68
2023/12/11 02:02:56;;;;;;;10.20;2.55;;;8.70;99.90;;;;;;6301905;22;20098;-68
2023/12/11 02:05:43;;;;;;;5.18;2.05;;;8.70;99.90;;;;;;6301272;22;20007;-68
2023/12/11 02:08:29;;;;;;;7.03;2.47;;;8.80;99.90;;;;;;6301516;22;20441;-68
2023/12/11 02:11:15;;;;;;;7.25;2.35;;;8.80;99.90;;;;;;6303612;22;20007;-68
2023/12/11 02:14:01;;;;;;;3.40;1.88;;;8.80;99.90;;;;;;6300515;22;20011;-69
2023/12/11 02:16:47;;;;;;;4.25;1.92;;;8.80;99.90;;;;;;6300194;22;20011;-69
2023/12/11 02:19:33;;;;;;;6.57;2.15;;;8.80;99.90;;;;;;6280730;22;20140;-69
2023/12/11 02:22:19;;;;;;;6.75;2.70;;;8.80;99.90;;;;;;6300419;22;20011;-69
2023/12/11 02:25:06;;;;;;;6.85;2.45;;;8.80;99.90;;;;;;6301719;22;20301;-70
2023/12/11 02:27:52;;;;;;;6.35;2.25;;;8.80;99.90;;;;;;6300776;22;20003;-70
2023/12/11 02:30:50;;;;;;;7.40;2.50;;;8.90;99.90;;;;;;6300758;22;20341;-70
2023/12/11 02:33:37;;;;;;;9.77;3.15;;;8.90;99.90;;;;;;6299814;22;20418;-69
2023/12/11 02:36:23;;;;;;;9.40;2.17;;;8.90;99.90;;;;;;6300381;22;20045;-69
2023/12/11 02:39:09;;;;;;;8.05;2.30;;;9.00;99.90;;;;;;6300895;22;20045;-69
2023/12/11 02:41:55;;;;;;;9.07;2.67;;;9.00;99.90;;;;;;6298373;22;20499;-70
2023/12/11 02:44:41;;;;;;;9.10;2.80;;;9.00;99.90;;;;;;6300839;22;20023;-68
2023/12/11 02:47:27;;;;;;;6.22;2.33;;;9.00;99.90;;;;;;6301591;22;20072;-68
2023/12/11 02:50:13;;;;;;;7.43;2.47;;;9.10;99.90;;;;;;6301683;22;20376;-68
2023/12/11 02:53:01;;;;;;;5.90;2.17;;;9.10;99.90;;;;;;6301246;22;20007;-69
2023/12/11 02:55:47;;;;;;;9.15;3.20;;;9.20;99.90;;;;;;6301514;22;20031;-69
2023/12/11 02:58:33;;;;;;;5.20;2.05;;;9.20;99.90;;;;;;6301320;22;20003;-69
2023/12/11 03:01:19;;;;;;;4.28;2.17;;;9.30;99.90;;;;;;6300471;22;20011;-71
2023/12/11 03:04:06;;;;;;;7.90;2.40;;;9.30;99.90;;;;;;6300753;22;20015;-70
2023/12/11 03:06:52;;;;;;;6.63;2.05;;;9.30;99.90;;;;;;6279674;22;20011;-71
2023/12/11 03:09:38;;;;;;;10.20;2.38;;;9.30;99.90;;;;;;6301554;22;20349;-69
2023/12/11 03:12:24;;;;;;;5.00;2.90;;;9.40;99.90;;;;;;6300654;22;20008;-68
2023/12/11 03:15:10;;;;;;;15.02;2.80;;;9.40;99.90;;;;;;6279582;22;20094;-69
2023/12/11 03:17:56;;;;;;;8.38;2.53;;;9.50;99.90;;;;;;6298689;22;20007;-68
2023/12/11 03:20:42;;;;;;;6.03;2.10;;;9.50;99.90;;;;;;6300675;22;20011;-68
2023/12/11 03:23:28;;;;;;;7.78;2.15;;;9.50;99.90;;;;;;6300335;22;20015;-68
2023/12/11 03:26:14;;;;;;;7.22;2.33;;;9.60;99.90;;;;;;6301440;22;20372;-68
2023/12/11 03:29:00;;;;;;;5.38;2.10;;;9.60;99.90;;;;;;6300300;22;20349;-68
2023/12/11 03:31:46;;;;;;;6.38;2.30;;;9.60;99.90;;;;;;6300603;22;20011;-68
2023/12/11 03:34:32;;;;;;;5.65;2.33;;;9.60;99.90;;;;;;6302127;22;20034;-68
2023/12/11 03:37:17;;;;;;;9.88;2.38;;;9.60;99.90;;;;;;6301717;22;20019;-71
2023/12/11 03:40:04;;;;;;;4.53;2.17;;;9.50;99.90;;;;;;6302364;22;20445;-70
2023/12/11 03:42:50;;;;;;;5.10;1.83;;;9.70;99.90;;;;;;6302846;22;20050;-70
2023/12/11 03:45:36;;;;;;;6.97;2.13;;;9.70;99.90;;;;;;6300260;22;20014;-70
2023/12/11 03:48:22;;;;;;;3.65;1.90;;;9.70;99.90;;;;;;6302476;22;20011;-70
2023/12/11 03:51:08;;;;;;;5.93;2.78;;;9.80;99.90;;;;;;6302013;22;20008;-70
2023/12/11 03:53:54;;;;;;;7.35;2.30;;;9.80;99.90;;;;;;6301011;22;20068;-70
2023/12/11 03:56:40;;;;;;;3.03;1.60;;;9.80;99.90;;;;;;6301908;22;20038;-69
2023/12/11 03:59:26;;;;;;;5.35;1.75;;;9.90;99.90;;;;;;6301056;22;20205;-69
2023/12/11 04:02:12;;;;;;;5.15;2.13;;;9.90;99.90;;;;;;6302782;22;20027;-68
2023/12/11 04:04:58;;;;;;;5.65;1.92;;;9.90;99.90;;;;;;6280629;22;20015;-68
2023/12/11 04:07:44;;;;;;;6.88;2.45;;;10.00;99.90;;;;;;6302023;22;20007;-69
2023/12/11 04:10:30;;;;;;;7.63;2.67;;;10.00;99.90;;;;;;6301871;22;20022;-69
2023/12/11 04:13:16;;;;;;;5.95;2.22;;;10.00;99.90;;;;;;6281377;22;20007;-69
2023/12/11 04:16:05;;;;;;;5.30;2.22;;;10.00;99.90;;;;;;6302794;22;20011;-69
2023/12/11 04:18:51;;;;;;;6.60;3.40;;;10.00;99.90;;;;;;6301332;22;20014;-69
2023/12/11 04:21:38;;;;;;;6.45;2.38;;;10.00;99.90;;;;;;6303019;22;20468;-69
2023/12/11 04:24:24;;;;;;;9.27;3.05;;;10.10;99.90;;;;;;6301050;22;20022;-69
2023/12/11 04:27:10;;;;;;;5.63;2.50;;;10.10;99.90;;;;;;6302783;22;20341;-69
2023/12/11 04:29:56;;;;;;;13.00;3.05;;;10.10;99.90;;;;;;6300428;22;20023;-70
2023/12/11 04:32:41;;;;;;;6.15;2.13;;;10.10;99.90;;;;;;6302256;22;20064;-69
2023/12/11 04:35:27;;;;;;;6.43;2.38;;;10.10;99.90;;;;;;6299895;22;20017;-69
2023/12/11 04:38:13;;;;;;;6.97;2.75;;;10.20;99.90;;;;;;6301378;22;20543;-69
2023/12/11 04:40:59;;;;;;;7.97;2.30;;;10.20;99.90;;;;;;6301758;22;20018;-69
2023/12/11 04:43:45;;;;;;;7.93;2.80;;;10.20;99.90;;;;;;6300506;22;20566;-69
2023/12/11 04:46:33;;;;;;;8.82;2.72;;;10.30;99.90;;;;;;6302792;22;20015;-66
2023/12/11 04:49:18;;;;;;;4.03;2.13;;;10.20;99.90;;;;;;6301536;22;20098;-65
2023/12/11 04:52:05;;;;;;;9.38;3.38;;;10.20;99.90;;;;;;6301330;22;20051;-65
2023/12/11 04:54:51;;;;;;;6.60;2.38;;;10.20;99.90;;;;;;6301554;22;20025;-67
2023/12/11 04:57:37;;;;;;;7.70;2.40;;;10.20;99.90;;;;;;6301547;22;20007;-71
2023/12/11 05:00:23;;;;;;;8.25;2.30;;;10.30;99.90;;;;;;6299590;22;20022;-59
2023/12/11 05:03:09;;;;;;;7.72;3.10;;;10.30;99.90;;;;;;6298420;22;20121;-65
2023/12/11 05:05:55;;;;;;;14.25;2.90;;;10.30;99.90;;;;;;6301804;22;20064;-65
2023/12/11 05:08:40;;;;;;;10.45;2.60;;;10.30;99.90;;;;;;6302001;22;20015;-68
2023/12/11 05:11:26;;;;;;;7.43;2.55;;;10.40;99.90;;;;;;6301671;22;20433;-68
2023/12/11 05:14:12;;;;;;;7.50;2.53;;;10.30;99.90;;;;;;6302285;22;20016;-67
2023/12/11 05:16:58;;;;;;;6.75;2.42;;;10.30;99.90;;;;;;6299629;22;19999;-67
2023/12/11 05:19:44;;;;;;;5.25;2.40;;;10.40;99.90;;;;;;6301468;22;20405;-67
2023/12/11 05:22:30;;;;;;;5.00;2.50;;;10.40;99.90;;;;;;6299845;22;20023;-67
2023/12/11 05:25:16;;;;;;;11.35;2.90;;;10.40;99.90;;;;;;6301192;22;20046;-68
2023/12/11 05:28:02;;;;;;;9.25;2.45;;;10.40;99.90;;;;;;6300990;22;20011;-67
2023/12/11 05:30:48;;;;;;;7.97;3.25;;;10.40;99.90;;;;;;6300946;22;20429;-67
2023/12/11 05:33:34;;;;;;;11.25;2.78;;;10.40;99.90;;;;;;6299926;22;20014;-68
2023/12/11 05:36:20;;;;;;;10.70;3.05;;;10.40;99.90;;;;;;6300920;22;20336;-68
2023/12/11 05:39:09;;;;;;;8.18;2.88;;;10.30;99.90;;;;;;6279979;22;20023;-68
2023/12/11 05:41:54;;;;;;;8.63;3.45;;;10.30;99.90;;;;;;6302813;22;20062;-67
2023/12/11 05:44:40;;;;;;;8.95;3.10;;;10.40;99.90;;;;;;6300267;22;20019;-67
2023/12/11 05:47:26;;;;;;;6.68;2.58;;;10.30;99.90;;;;;;6279988;22;20011;-67
2023/12/11 05:50:13;;;;;;;6.82;2.85;;;10.30;99.90;;;;;;6301106;22;20441;-68
2023/12/11 05:52:58;;;;;;;11.35;3.20;;;10.30;99.90;;;;;;6301105;22;20011;-67
2023/12/11 05:55:44;;;;;;;10.77;2.97;;;10.30;99.90;;;;;;6302361;22;20089;-67
2023/12/11 05:58:31;;;;;;;6.28;2.75;;;10.30;99.90;;;;;;6280318;22;20022;-68
2023/12/11 06:01:17;;;;;;;7.05;2.70;;;10.30;99.90;;;;;;6302109;22;20008;-68
2023/12/11 06:04:04;;;;;;;5.88;2.88;;;10.30;99.90;;;;;;6299990;22;20066;-68
2023/12/11 06:06:50;;;;;;;8.18;2.22;;;10.20;99.90;;;;;;6302161;22;20011;-68
2023/12/11 06:09:36;;;;;;;8.82;2.97;;;10.30;99.90;;;;;;6300937;22;20046;-68
2023/12/11 06:12:21;;;;;;;7.22;2.55;;;10.20;99.90;;;;;;6299259;22;20420;-69
2023/12/11 06:15:08;;;;;;;6.45;2.53;;;10.30;99.90;;;;;;6301005;22;20014;-70
2023/12/11 06:17:54;;;;;;;5.32;3.00;;;10.20;99.90;;;;;;6301041;22;20392;-69
2023/12/11 06:20:40;;;;;;;6.82;2.67;;;10.30;99.90;;;;;;6300323;22;20010;-70
2023/12/11 06:23:26;;;;;;;7.28;2.53;;;10.30;99.90;;;;;;6299481;22;20471;-70
2023/12/11 06:26:34;;;;;;;10.55;3.70;;;10.30;99.90;;;;;;6300045;22;20459;-71
2023/12/11 06:29:19;;;;;;;6.82;2.45;;;10.30;99.90;;;;;;6300608;22;20357;-70
2023/12/11 06:32:06;;;;;;;8.10;2.90;;;10.30;99.90;;;;;;6300109;22;20077;-70
2023/12/11 06:34:52;;;;;;;7.53;2.75;;;10.30;99.90;;;;;;6279585;22;20015;-71
2023/12/11 06:37:38;;;;;;;7.50;2.80;;;10.30;99.90;;;;;;6300023;22;20061;-71
2023/12/11 06:40:24;;;;;;;6.15;2.50;;;10.30;99.90;;;;;;6300794;22;20011;-71
2023/12/11 06:43:10;;;;;;;5.53;2.33;;;10.30;99.90;;;;;;6300525;22;20107;-72
2023/12/11 06:45:56;;;;;;;7.57;2.38;;;10.30;99.90;;;;;;6300113;22;20007;-71
2023/12/11 06:48:42;;;;;;;4.03;2.30;;;10.30;99.90;;;;;;6301499;22;20034;-71
2023/12/11 06:51:29;;;;;;;13.30;2.95;;;10.30;99.90;;;;;;6300557;22;20091;-71
2023/12/11 06:54:15;;;;;;;4.35;2.65;;;10.20;99.90;;;;;;6301453;22;20445;-71
2023/12/11 06:57:01;;;;;;;7.50;3.13;;;10.20;99.90;;;;;;6299808;22;20092;-71
2023/12/11 06:59:47;;;;;;;5.82;2.80;;;10.30;99.90;;;;;;6301878;22;20117;-70
2023/12/11 07:02:33;;;;;;;6.07;2.20;;;10.30;99.90;;;;;;6300987;22;20083;-70
2023/12/11 07:05:19;;;;;;;14.45;3.50;;;10.30;99.90;;;;;;6302413;22;20031;-69
2023/12/11 07:08:05;;;;;;;8.77;3.50;;;10.30;99.90;;;;;;6302774;22;20019;-69
2023/12/11 07:10:51;;;;;;;6.97;2.67;;;10.30;99.90;;;;;;6301725;22;20011;-69
2023/12/11 07:13:39;;;;;;;7.32;2.88;;;10.30;99.90;;;;;;6301827;22;20010;-71
2023/12/11 07:16:25;;;;;;;6.10;2.60;;;10.30;99.90;;;;;;6301979;22;20023;-71
2023/12/11 07:19:11;;;;;;;4.63;2.63;;;10.30;99.90;;;;;;6301398;22;20094;-70
2023/12/11 07:21:57;;;;;;;7.45;3.50;;;10.30;99.90;;;;;;6301504;22;20003;-70
2023/12/11 07:24:43;;;;;;;6.75;3.08;;;10.40;99.90;;;;;;6300534;22;20016;-70
2023/12/11 07:27:29;;;;;;;6.45;2.78;;;10.40;99.90;;;;;;6298852;22;20008;-71
2023/12/11 07:30:15;;;;;;;5.28;2.38;;;10.40;99.90;;;;;;6279164;22;20003;-70
2023/12/11 07:33:02;;;;;;;5.50;2.10;;;10.40;99.90;;;;;;6301885;22;21037;-70
2023/12/11 07:35:48;;;;;;;6.43;2.22;;;10.40;99.90;;;;;;6282438;22;20042;-70
2023/12/11 07:38:34;;;;;;;5.65;2.47;;;10.50;99.90;;;;;;6298970;22;20069;-71
2023/12/11 07:41:22;;;;;;;5.80;2.35;;;10.50;99.90;;;;;;6303307;22;20461;-70
2023/12/11 07:44:08;;;;;;;7.88;2.67;;;10.50;99.90;;;;;;6300236;22;20021;-70
2023/12/11 07:46:53;;;;;;;6.65;2.42;;;10.50;99.90;;;;;;6299882;22;20480;-70
2023/12/11 07:49:39;;;;;;;5.13;2.20;;;10.50;99.90;;;;;;6301480;22;20015;-70
2023/12/11 07:52:32;;;;;;;7.18;2.40;;;10.50;99.90;;;;;;6299397;22;20007;-70
2023/12/11 07:55:18;;;;;;;4.05;2.35;;;10.50;99.90;;;;;;6301845;22;20337;-71
2023/12/11 07:58:04;;;;;;;7.85;2.30;;;10.50;99.90;;;;;;6299678;22;20011;-70
2023/12/11 08:00:50;;;;;;;6.88;2.50;;;10.50;99.90;;;;;;6301717;22;20506;-71
2023/12/11 08:03:36;;;;;;;3.50;1.83;;;10.50;99.90;;;;;;6301229;22;20041;-70
2023/12/11 08:06:22;;;;;;;4.50;1.85;;;10.60;99.90;;;;;;6300613;22;20429;-70
2023/12/11 08:09:09;;;;;;;8.77;3.10;;;10.60;99.90;;;;;;6300606;22;20011;-69
2023/12/11 08:11:55;;;;;;;7.20;2.60;;;10.60;99.90;;;;;;6302613;22;20054;-70
2023/12/11 08:14:41;;;;;;;8.80;2.53;;;10.60;99.90;;;;;;6299814;22;20437;-70
2023/12/11 08:17:27;;;;;;;9.00;2.90;;;10.60;99.90;;;;;;6301213;22;20007;-70
2023/12/11 08:20:16;;;;;;;5.63;2.40;;;10.60;99.90;;;;;;6301333;22;20034;-71
2023/12/11 08:23:02;;;;;;;5.78;2.20;;;10.50;99.90;;;;;;6302184;22;20015;-71
2023/12/11 08:25:48;;;;;;;5.82;2.42;;;10.50;99.90;;;;;;6301534;22;20007;-70
2023/12/11 08:28:34;;;;;;;9.52;2.80;;;10.60;99.90;;;;;;6301045;22;20011;-69
2023/12/11 08:31:20;;;;;;;5.80;2.10;;;10.60;99.90;;;;;;6300690;22;20007;-69
2023/12/11 08:34:06;;;;;;;8.90;2.00;;;10.60;99.90;;;;;;6301568;22;20415;-70
2023/12/11 08:36:52;;;;;;;4.05;2.22;;;10.60;99.90;;;;;;6300897;22;20031;-70
2023/12/11 08:39:38;;;;;;;5.43;2.13;;;10.60;99.90;;;;;;6301195;22;20468;-71
2023/12/11 08:42:24;;;;;;;7.07;2.38;;;10.60;99.90;;;;;;6301060;22;20003;-70
2023/12/11 08:45:10;;;;;;;8.68;2.90;;;10.60;99.90;;;;;;6300765;22;20034;-71
2023/12/11 08:47:56;;;;;;;13.07;2.33;;;10.60;99.90;;;;;;6300215;22;20007;-71
2023/12/11 08:50:42;;;;;;;6.80;2.53;;;10.70;99.90;;;;;;6301117;22;20069;-69
2023/12/11 08:53:28;;;;;;;6.85;2.22;;;10.70;99.90;;;;;;6301042;22;20014;-69
2023/12/11 08:56:14;;;;;;;5.95;2.47;;;10.70;99.90;;;;;;6302157;22;20102;-70
2023/12/11 08:59:00;;;;;;;8.95;3.00;;;10.70;99.90;;;;;;6300632;22;20053;-70
2023/12/11 09:01:46;;;;;;;9.80;2.97;;;10.70;99.90;;;;;;6281054;22;20015;-70
2023/12/11 09:04:33;;;;;;;7.07;2.70;;;10.80;99.90;;;;;;6301105;22;20390;-69
2023/12/11 09:07:19;;;;;;;8.00;2.70;;;10.80;99.90;;;;;;6280505;22;20069;-70
2023/12/11 09:10:08;;;;;;;21.80;3.58;;;10.80;99.90;;;;;;6299853;22;20053;-70
2023/12/11 09:12:54;;;;;;;7.43;2.28;;;10.90;99.90;;;;;;6301406;22;20456;-69
2023/12/11 09:15:40;;;;;;;8.23;2.75;;;10.90;99.90;;;;;;6299232;22;20090;-69
2023/12/11 09:18:26;;;;;;;11.98;4.63;;;10.90;99.90;;;;;;6300940;22;20011;-71
2023/12/11 09:21:12;;;;;;;28.60;6.22;;;10.90;99.90;;;;;;6300938;22;20012;-70
2023/12/11 09:23:58;;;;;;;10.75;3.22;;;11.00;99.90;;;;;;6300156;22;20019;-70
2023/12/11 09:26:44;;;;;;;8.90;3.08;;;11.00;99.90;;;;;;6299218;22;20057;-69
2023/12/11 09:29:30;;;;;;;22.05;4.72;;;10.90;99.90;;;;;;6302139;22;20365;-69
2023/12/11 09:32:16;;;;;;;11.25;3.65;;;10.90;99.90;;;;;;6300844;22;20514;-69
2023/12/11 09:35:02;;;;;;;14.10;4.25;;;10.90;99.90;;;;;;6301052;22;20407;-69
2023/12/11 09:37:50;;;;;;;8.98;3.60;;;10.90;99.90;;;;;;6302595;22;20031;-69
2023/12/11 09:40:36;;;;;;;19.35;4.28;;;10.90;99.90;;;;;;6299500;22;20111;-69
2023/12/11 09:43:23;;;;;;;9.63;3.95;;;10.90;99.90;;;;;;6302279;22;20465;-69
2023/12/11 09:46:12;;;;;;;11.15;2.83;;;10.90;99.90;;;;;;6301099;22;20007;-69
2023/12/11 09:48:59;;;;;;;14.23;3.33;;;10.90;99.90;;;;;;6301272;22;20018;-69
2023/12/11 09:51:45;;;;;;;8.90;3.13;;;11.00;99.90;;;;;;6300922;22;20060;-69
2023/12/11 09:54:31;;;;;;;13.48;4.25;;;11.00;99.90;;;;;;6301610;22;20015;-77
2023/12/11 09:57:17;;;;;;;8.43;3.45;;;10.90;99.90;;;;;;6300850;22;20421;-68
2023/12/11 10:00:04;;;;;;;11.05;3.33;;;11.00;99.90;;;;;;6300808;22;20004;-70
2023/12/11 10:02:51;;;;;;;11.93;3.10;;;11.00;99.90;;;;;;6300370;22;20023;-70
2023/12/11 10:05:38;;;;;;;10.18;2.90;;;11.00;99.90;;;;;;6301633;22;20007;-69
2023/12/11 10:08:24;;;;;;;8.65;3.05;;;11.00;99.90;;;;;;6302105;22;20274;-70
2023/12/11 10:11:14;;;;;;;7.80;3.03;;;11.00;99.90;;;;;;6300859;22;20003;-69
2023/12/11 10:14:13;;;;;;;13.68;3.55;;;11.00;99.90;;;;;;6299606;22;20015;-70
2023/12/11 10:17:14;;;;;;;13.52;3.50;;;11.00;99.90;;;;;;6301850;22;20046;-69
2023/12/11 10:20:00;;;;;;;8.07;3.08;;;11.00;99.90;;;;;;6301800;22;20013;-70
2023/12/11 10:22:46;;;;;;;19.23;6.38;;;11.00;99.90;;;;;;6300736;22;20046;-70
2023/12/11 10:25:32;;;;;;;11.30;5.88;;;11.00;99.90;;;;;;6300474;22;20207;-70
2023/12/11 10:28:20;;;;;;;8.80;3.63;;;11.10;99.90;;;;;;6301825;22;20092;-70
2023/12/11 10:31:06;;;;;;;9.07;3.13;;;11.10;99.90;;;;;;6299522;22;20096;-70
2023/12/11 10:33:52;;;;;;;7.38;3.33;;;11.10;99.90;;;;;;6300331;22;20076;-69
2023/12/11 10:36:51;;;;;;;10.55;3.53;;;11.10;99.90;;;;;;6300583;22;20038;-71
2023/12/11 10:39:37;;;;;;;15.88;3.40;;;11.10;99.90;;;;;;6303655;22;20090;-69
2023/12/11 10:42:25;;;;;;;12.57;3.35;;;11.00;99.90;;;;;;6301896;22;20031;-70
2023/12/11 10:45:11;;;;;;;10.55;4.15;;;11.10;99.90;;;;;;6303504;22;20015;-71
2023/12/11 10:47:58;;;;;;;8.63;3.60;;;11.10;99.90;;;;;;6301662;22;20007;-70
2023/12/11 10:50:44;;;;;;;7.93;3.40;;;11.10;99.90;;;;;;6303190;22;20412;-70
2023/12/11 10:53:30;;;;;;;10.05;3.55;;;11.10;99.90;;;;;;6302974;22;20018;-70
2023/12/11 10:56:17;;;;;;;8.65;2.67;;;11.10;99.90;;;;;;6302547;22;20011;-70
2023/12/11 10:59:03;;;;;;;12.98;3.67;;;11.00;99.90;;;;;;6303349;22;20031;-70
2023/12/11 11:01:50;;;;;;;12.10;3.85;;;11.00;99.90;;;;;;6301871;22;20064;-70
2023/12/11 11:04:40;;;;;;;8.13;3.05;;;11.00;99.90;;;;;;6302657;22;20102;-70
2023/12/11 11:07:34;;;;;;;12.85;3.97;;;11.00;99.90;;;;;;6302312;22;20007;-72
2023/12/11 11:10:27;;;;;;;40.42;8.70;;;11.00;99.90;;;;;;6301733;22;20452;-73
2023/12/11 11:13:21;;;;;;;8.77;4.03;;;11.00;99.90;;;;;;6302647;22;20084;-70
2023/12/11 11:16:07;;;;;;;13.88;3.53;;;11.00;99.90;;;;;;6300295;22;20064;-71
2023/12/11 11:19:19;;;;;;;14.25;5.15;;;10.90;99.90;;;;;;6297451;22;20007;-72
2023/12/11 11:22:08;;;;;;;10.18;3.90;;;10.90;99.90;;;;;;6303262;22;20007;-71
2023/12/11 11:24:54;;;;;;;16.65;4.32;;;11.00;99.90;;;;;;6300216;22;20098;-70
2023/12/11 11:27:43;;;;;;;11.07;3.33;;;11.00;99.90;;;;;;6281212;22;20011;-71
2023/12/11 11:30:41;;;;;;;14.98;4.88;;;11.00;99.90;;;;;;6302883;22;20076;-71
2023/12/11 11:33:49;;;;;;;61.83;13.57;;;11.10;99.90;;;;;;6302315;22;20019;-70
2023/12/11 11:36:47;;;;;;;34.03;8.98;;;11.10;99.90;;;;;;6303707;22;20007;-70
2023/12/11 11:39:57;;;;;;;11.57;3.50;;;11.20;99.90;;;;;;6302432;22;20180;-71
2023/12/11 11:42:43;;;;;;;47.15;10.32;;;11.30;99.90;;;;;;6304798;22;20016;-71
2023/12/11 11:45:32;;;;;;;15.23;5.03;;;11.30;99.90;;;;;;6301642;22;20341;-70
2023/12/11 11:48:18;;;;;;;119.35;25.50;;;11.40;99.90;;;;;;6282050;22;20018;-72
2023/12/11 11:51:04;;;;;;;25.20;7.45;;;11.40;99.90;;;;;;6302828;22;20046;-71
2023/12/11 11:53:58;;;;;;;11.98;4.47;;;11.50;99.90;;;;;;6279020;22;20015;-71
2023/12/11 11:56:47;;;;;;;20.77;5.78;;;11.50;99.90;;;;;;6298575;22;20011;-70
2023/12/11 11:59:45;;;;;;;9.75;3.85;;;11.60;99.90;;;;;;6301244;22;20011;-71
2023/12/11 12:02:31;;;;;;;13.35;4.45;;;11.60;99.90;;;;;;6301830;22;20007;-71
2023/12/11 12:05:17;;;;;;;12.85;5.75;;;11.60;99.90;;;;;;6301656;22;20015;-70
2023/12/11 12:08:10;;;;;;;21.42;6.00;;;11.60;99.90;;;;;;6301389;22;20007;-70
2023/12/11 12:10:57;;;;;;;15.27;4.88;;;11.70;99.90;;;;;;6301205;22;20011;-70
2023/12/11 12:13:42;;;;;;;10.48;3.47;;;11.70;99.90;;;;;;6301385;22;20057;-70
2023/12/11 12:16:28;;;;;;;11.10;4.32;;;11.70;99.90;;;;;;6301563;22;20015;-70
2023/12/11 12:19:15;;;;;;;13.02;3.78;;;11.70;99.90;;;;;;6300768;22;20554;-70
2023/12/11 12:22:02;;;;;;;34.75;7.90;;;11.70;99.90;;;;;;6300988;22;20011;-71
2023/12/11 12:24:48;;;;;;;19.33;4.57;;;11.80;99.90;;;;;;6302363;22;20050;-71
2023/12/11 12:27:36;;;;;;;25.30;5.47;;;11.80;99.90;;;;;;6302925;22;20503;-71
2023/12/11 12:30:22;;;;;;;45.42;9.00;;;11.80;99.90;;;;;;6281661;22;20441;-71
2023/12/11 12:33:10;;;;;;;21.63;7.10;;;11.80;99.90;;;;;;6300837;22;20094;-71
2023/12/11 12:35:57;;;;;;;26.98;6.85;;;11.80;99.90;;;;;;6300624;22;20011;-71
2023/12/11 12:38:43;;;;;;;44.47;11.38;;;11.80;99.90;;;;;;6301355;22;20020;-71
2023/12/11 12:41:29;;;;;;;30.48;7.35;;;11.80;99.90;;;;;;6302137;22;20011;-71
2023/12/11 12:44:19;;;;;;;33.08;7.25;;;11.80;99.90;;;;;;6302600;22;20022;-71
2023/12/11 12:47:07;;;;;;;13.05;3.38;;;11.90;99.90;;;;;;6303386;22;20092;-71
2023/12/11 12:49:53;;;;;;;30.77;6.38;;;11.80;99.90;;;;;;6303319;22;20030;-71
2023/12/11 12:52:40;;;;;;;14.32;4.40;;;11.80;99.90;;;;;;6299536;22;20108;-71
2023/12/11 12:55:29;;;;;;;20.15;5.63;;;11.80;99.90;;;;;;6300077;22;20007;-71
2023/12/11 12:58:24;;;;;;;41.53;7.88;;;11.80;99.90;;;;;;6298980;22;20015;-71
2023/12/11 13:01:10;;;;;;;51.65;12.15;;;11.80;99.90;;;;;;6299603;22;20011;-70
2023/12/11 13:04:00;;;;;;;22.70;7.13;;;11.90;99.90;;;;;;6301976;22;20101;-74
2023/12/11 13:06:46;;;;;;;20.80;5.57;;;11.90;99.90;;;;;;6300009;22;20117;-71
2023/12/11 13:09:33;;;;;;;24.83;7.60;;;11.90;99.90;;;;;;6300698;22;20017;-72
2023/12/11 13:12:23;;;;;;;22.33;6.38;;;11.90;99.90;;;;;;6299655;22;20090;-77
2023/12/11 13:15:09;;;;;;;20.67;6.82;;;11.90;99.90;;;;;;6299325;22;20011;-77
2023/12/11 13:17:55;;;;;;;74.38;13.45;;;11.90;99.90;;;;;;6301335;22;20467;-73
2023/12/11 13:20:41;;;;;;;33.55;9.75;;;11.90;99.90;;;;;;6299415;22;20771;-75
2023/12/11 13:23:27;;;;;;;48.78;9.02;;;11.90;99.90;;;;;;6300295;22;20459;-73
2023/12/11 13:26:14;;;;;;;35.28;8.60;;;12.00;99.90;;;;;;6300105;22;20337;-75
2023/12/11 15:56:52;;;;;;;16.27;5.72;;;11.10;99.90;;;;;;6120882;22;1642496;-70
2023/12/11 15:59:38;;;;;;;7.32;3.65;;;11.10;99.90;;;;;;6181434;23;20064;-71
2023/12/11 16:02:24;;;;;;;8.60;4.25;;;11.10;99.90;;;;;;6180736;23;20502;-72
2023/12/11 16:05:10;;;;;;;8.13;4.22;;;11.20;99.90;;;;;;6166893;23;20013;-70
2023/12/11 16:07:56;;;;;;;10.02;3.97;;;11.10;99.90;;;;;;6150288;23;20585;-71
2023/12/11 16:10:42;;;;;;;7.57;4.43;;;11.20;99.90;;;;;;6147098;23;20005;-72
2023/12/11 16:13:28;;;;;;;8.48;4.60;;;11.20;99.90;;;;;;6150533;23;20009;-72
2023/12/11 16:16:16;;;;;;;14.70;4.95;;;11.10;99.90;;;;;;6149274;23;20043;-71
2023/12/11 16:19:02;;;;;;;8.50;5.18;;;11.20;99.90;;;;;;6151114;23;20013;-72
2023/12/11 16:21:48;;;;;;;8.73;4.97;;;11.20;99.90;;;;;;6146882;23;20005;-71
2023/12/11 16:24:34;;;;;;;10.30;4.78;;;11.30;99.90;;;;;;6146664;23;20094;-72
2023/12/11 16:27:20;;;;;;;10.98;5.05;;;11.20;99.90;;;;;;6148645;23;20013;-71
2023/12/11 16:30:09;;;;;;;10.93;4.72;;;11.20;99.90;;;;;;6152157;23;20013;-69
2023/12/11 16:32:55;;;;;;;11.02;4.40;;;11.30;99.90;;;;;;6150903;23;20020;-71
2023/12/11 16:35:41;;;;;;;11.65;3.70;;;11.30;99.90;;;;;;6149558;23;20116;-71
2023/12/11 16:38:27;;;;;;;5.47;3.15;;;11.30;99.90;;;;;;6152895;23;20532;-70
2023/12/11 16:41:23;;;;;;;7.25;3.55;;;11.30;99.90;;;;;;6149682;23;20048;-70
2023/12/11 16:44:12;;;;;;;6.70;3.30;;;11.30;99.90;;;;;;6149883;23;20056;-70
2023/12/11 16:46:58;;;;;;;7.45;3.33;;;11.30;99.90;;;;;;6148596;23;20013;-69
2023/12/11 16:49:44;;;;;;;8.38;3.58;;;11.30;99.90;;;;;;6151519;23;20096;-70
2023/12/11 16:52:30;;;;;;;6.70;3.05;;;11.30;99.90;;;;;;6151322;23;20009;-69
2023/12/11 16:55:17;;;;;;;4.00;2.85;;;11.30;99.90;;;;;;6147898;23;20407;-70